createdAt,value
2022-11-09T00:00:17.251Z,3.63
2022-11-09T00:02:44.561Z,4.18
2022-11-09T00:05:11.944Z,3.80
2022-11-09T00:07:39.358Z,3.60
2022-11-09T00:10:07.121Z,3.75
2022-11-09T00:12:34.548Z,3.72
2022-11-09T00:15:02.087Z,3.85
2022-11-09T00:17:29.411Z,3.75
2022-11-09T00:19:56.816Z,3.80
2022-11-09T00:22:24.185Z,3.45
2022-11-09T00:24:51.679Z,3.60
2022-11-09T00:27:19.037Z,3.30
2022-11-09T00:29:46.481Z,3.70
2022-11-09T00:32:13.910Z,4.35
2022-11-09T00:34:44.792Z,3.22
2022-11-09T00:37:17.836Z,3.45
2022-11-09T00:39:45.316Z,4.35
2022-11-09T00:42:12.671Z,3.35
2022-11-09T00:44:40.018Z,3.20
2022-11-09T00:47:12.622Z,3.80
2022-11-09T00:49:40.058Z,3.50
2022-11-09T00:52:07.568Z,4.05
2022-11-09T00:54:34.969Z,3.45
2022-11-09T00:57:02.367Z,3.97
2022-11-09T00:59:29.712Z,3.42
2022-11-09T01:01:57.252Z,3.25
2022-11-09T01:04:24.613Z,3.38
2022-11-09T01:06:52.213Z,3.00
2022-11-09T01:09:19.593Z,3.22
2022-11-09T01:11:47.022Z,3.85
2022-11-09T01:14:14.354Z,3.55
2022-11-09T01:16:41.762Z,3.70
2022-11-09T01:19:09.084Z,3.33
2022-11-09T01:21:36.594Z,3.10
2022-11-09T01:24:04.068Z,3.92
2022-11-09T01:26:32.028Z,3.10
2022-11-09T01:28:59.378Z,3.15
2022-11-09T01:31:26.765Z,3.30
2022-11-09T01:33:54.215Z,3.30
2022-11-09T01:36:22.985Z,2.75
2022-11-09T01:38:50.813Z,2.83
2022-11-09T01:41:23.173Z,2.97
2022-11-09T01:44:22.974Z,3.10
2022-11-09T01:47:05.517Z,3.10
2022-11-09T01:49:41.966Z,3.40
2022-11-09T01:52:13.391Z,3.05
2022-11-09T01:54:42.926Z,2.53
2022-11-09T01:57:14.749Z,3.17
2022-11-09T01:59:44.844Z,2.53
2022-11-09T02:02:12.383Z,2.90
2022-11-09T02:04:46.992Z,2.60
2022-11-09T02:07:14.450Z,3.05
2022-11-09T02:09:49.120Z,2.70
2022-11-09T02:12:18.085Z,2.78
2022-11-09T02:14:45.971Z,2.65
2022-11-09T02:17:13.556Z,2.60
2022-11-09T02:19:40.938Z,2.58
2022-11-09T02:22:08.322Z,2.55
2022-11-09T02:24:35.697Z,2.47
2022-11-09T02:27:03.363Z,2.40
2022-11-09T02:29:33.643Z,2.47
2022-11-09T02:32:02.594Z,2.30
2022-11-09T02:34:30.077Z,2.22
2022-11-09T02:36:57.505Z,2.22
2022-11-09T02:39:26.618Z,2.00
2022-11-09T02:42:02.924Z,1.98
2022-11-09T02:44:32.979Z,1.83
2022-11-09T02:47:00.455Z,1.60
2022-11-09T02:49:27.773Z,2.30
2022-11-09T02:51:55.208Z,2.10
2022-11-09T02:54:22.508Z,1.48
2022-11-09T02:56:49.831Z,1.90
2022-11-09T02:59:17.457Z,1.90
2022-11-09T03:01:44.835Z,1.63
2022-11-09T03:04:12.387Z,2.03
2022-11-09T03:06:39.795Z,1.77
2022-11-09T03:09:10.125Z,1.95
2022-11-09T03:11:37.833Z,1.50
2022-11-09T03:14:05.589Z,2.20
2022-11-09T03:16:33.176Z,1.90
2022-11-09T03:19:00.661Z,1.80
2022-11-09T03:21:31.080Z,2.40
2022-11-09T03:23:58.691Z,1.90
2022-11-09T03:26:26.318Z,2.40
2022-11-09T03:28:53.780Z,1.90
2022-11-09T03:31:21.159Z,1.67
2022-11-09T03:33:48.587Z,2.03
2022-11-09T03:36:16.402Z,1.88
2022-11-09T03:38:43.759Z,2.00
2022-11-09T03:41:11.093Z,2.22
2022-11-09T03:43:38.548Z,2.40
2022-11-09T03:46:05.942Z,2.13
2022-11-09T03:48:33.856Z,2.30
2022-11-09T03:51:01.405Z,2.20
2022-11-09T03:53:28.836Z,2.33
2022-11-09T03:55:58.003Z,2.78
2022-11-09T03:58:25.382Z,1.80
2022-11-09T04:00:52.837Z,2.15
2022-11-09T04:03:20.375Z,2.40
2022-11-09T04:05:48.005Z,2.95
2022-11-09T04:08:15.304Z,2.58
2022-11-09T04:10:42.661Z,2.38
2022-11-09T04:13:10.097Z,2.22
2022-11-09T04:15:37.769Z,2.10
2022-11-09T04:18:05.121Z,2.10
2022-11-09T04:20:35.771Z,2.30
2022-11-09T04:23:04.447Z,2.50
2022-11-09T04:25:36.007Z,2.28
2022-11-09T04:28:04.413Z,2.50
2022-11-09T04:30:32.592Z,2.65
2022-11-09T04:33:00.669Z,3.05
2022-11-09T04:35:29.022Z,3.35
2022-11-09T04:37:57.221Z,3.70
2022-11-09T04:40:25.885Z,3.28
2022-11-09T04:42:54.698Z,3.10
2022-11-09T04:45:22.602Z,3.28
2022-11-09T04:47:49.937Z,3.33
2022-11-09T04:50:17.391Z,3.30
2022-11-09T04:52:44.772Z,2.70
2022-11-09T04:55:12.120Z,2.78
2022-11-09T04:57:39.416Z,3.40
2022-11-09T05:00:07.482Z,3.35
2022-11-09T05:02:34.771Z,3.65
2022-11-09T05:05:02.317Z,3.28
2022-11-09T05:07:29.747Z,2.97
2022-11-09T05:09:57.067Z,3.10
2022-11-09T05:12:24.603Z,4.00
2022-11-09T05:14:51.969Z,3.60
2022-11-09T05:17:19.627Z,3.95
2022-11-09T05:19:46.983Z,4.57
2022-11-09T05:22:33.164Z,4.22
2022-11-09T05:25:00.664Z,4.07
2022-11-09T05:27:28.190Z,4.68
2022-11-09T05:29:55.588Z,3.25
2022-11-09T05:32:22.930Z,3.00
2022-11-09T05:34:50.341Z,2.80
2022-11-09T05:37:18.496Z,2.33
2022-11-09T05:39:45.809Z,3.13
2022-11-09T05:42:13.241Z,2.28
2022-11-09T05:44:40.593Z,2.72
2022-11-09T05:47:08.076Z,2.90
2022-11-09T05:49:35.442Z,3.05
2022-11-09T05:52:03.485Z,2.70
2022-11-09T05:54:30.794Z,3.45
2022-11-09T05:56:58.270Z,3.15
2022-11-09T05:59:25.618Z,2.47
2022-11-09T06:01:53.181Z,2.40
2022-11-09T06:04:20.562Z,2.35
2022-11-09T06:06:47.986Z,2.15
2022-11-09T06:09:15.468Z,2.47
2022-11-09T06:11:42.814Z,2.30
2022-11-09T06:14:10.182Z,1.83
2022-11-09T06:16:38.085Z,2.00
2022-11-09T06:19:05.424Z,1.90
2022-11-09T06:21:32.843Z,2.00
2022-11-09T06:24:00.158Z,2.20
2022-11-09T06:26:27.689Z,2.30
2022-11-09T06:28:58.181Z,2.20
2022-11-09T06:31:25.539Z,1.88
2022-11-09T06:33:52.830Z,2.00
2022-11-09T06:36:20.333Z,2.00
2022-11-09T06:38:51.543Z,2.50
2022-11-09T06:41:19.211Z,2.15
2022-11-09T06:43:47.549Z,2.10
2022-11-09T06:46:17.566Z,2.17
2022-11-09T06:48:44.883Z,2.30
2022-11-09T06:51:12.801Z,2.10
2022-11-09T06:53:41.707Z,2.00
2022-11-09T06:56:09.757Z,2.00
2022-11-09T06:58:37.855Z,2.42
2022-11-09T07:01:09.359Z,1.70
2022-11-09T07:03:36.858Z,2.10
2022-11-09T07:06:08.372Z,3.03
2022-11-09T07:08:36.096Z,3.42
2022-11-09T07:11:07.576Z,2.80
2022-11-09T07:13:35.009Z,2.47
2022-11-09T07:16:02.405Z,1.75
2022-11-09T07:18:29.930Z,1.77
2022-11-09T07:20:57.284Z,1.83
2022-11-09T07:23:24.690Z,1.92
2022-11-09T07:25:52.583Z,2.13
2022-11-09T07:28:20.027Z,2.78
2022-11-09T07:30:50.572Z,2.10
2022-11-09T07:33:18.552Z,2.60
2022-11-09T07:35:46.698Z,2.00
2022-11-09T07:38:16.069Z,2.00
2022-11-09T07:40:44.317Z,2.00
2022-11-09T07:43:12.620Z,2.47
2022-11-09T07:45:40.022Z,2.72
2022-11-09T07:48:08.967Z,2.38
2022-11-09T07:50:37.076Z,1.70
2022-11-09T07:53:05.856Z,1.40
2022-11-09T07:55:33.163Z,1.27
2022-11-09T07:58:01.437Z,1.30
2022-11-09T08:00:29.673Z,1.40
2022-11-09T08:02:57.471Z,1.00
2022-11-09T08:05:24.957Z,1.20
2022-11-09T08:07:56.467Z,1.35
2022-11-09T08:10:24.371Z,1.50
2022-11-09T08:12:55.992Z,1.30
2022-11-09T08:15:23.524Z,1.10
2022-11-09T08:17:51.168Z,1.13
2022-11-09T08:20:20.211Z,2.97
2022-11-09T08:22:48.532Z,1.20
2022-11-09T08:25:15.943Z,2.70
2022-11-09T08:27:43.703Z,1.63
2022-11-09T08:30:13.208Z,1.35
2022-11-09T08:32:41.125Z,1.10
2022-11-09T08:35:10.735Z,0.90
2022-11-09T08:37:38.806Z,0.82
2022-11-09T08:40:06.811Z,1.10
2022-11-09T08:42:34.207Z,0.88
2022-11-09T08:45:01.532Z,2.75
2022-11-09T08:47:29.786Z,2.28
2022-11-09T08:49:57.132Z,1.35
2022-11-09T08:52:24.867Z,1.58
2022-11-09T08:54:52.313Z,1.70
2022-11-09T08:57:20.422Z,1.15
2022-11-09T08:59:48.021Z,1.88
2022-11-09T09:02:15.818Z,1.95
2022-11-09T09:04:43.454Z,1.10
2022-11-09T09:07:11.179Z,1.13
2022-11-09T09:09:38.869Z,1.13
2022-11-09T09:12:06.959Z,0.70
2022-11-09T09:14:34.696Z,1.08
2022-11-09T09:17:02.511Z,1.35
2022-11-09T09:19:30.007Z,0.73
2022-11-09T09:21:57.496Z,0.85
2022-11-09T09:24:25.036Z,1.00
2022-11-09T09:26:52.408Z,1.30
2022-11-09T09:29:20.061Z,1.10
2022-11-09T09:31:47.374Z,1.17
2022-11-09T09:34:15.743Z,0.80
2022-11-09T09:36:47.604Z,0.80
2022-11-09T09:39:15.991Z,0.80
2022-11-09T09:41:55.698Z,1.98
2022-11-09T09:44:33.199Z,1.55
2022-11-09T09:47:07.784Z,1.10
2022-11-09T09:49:36.860Z,0.77
2022-11-09T09:52:10.995Z,0.80
2022-11-09T09:54:44.663Z,0.85
2022-11-09T09:57:15.785Z,0.70
2022-11-09T09:59:44.203Z,0.60
2022-11-09T10:02:15.843Z,0.63
2022-11-09T10:04:43.313Z,1.35
2022-11-09T10:07:18.311Z,0.60
2022-11-09T10:09:54.979Z,0.90
2022-11-09T10:12:29.741Z,0.80
2022-11-09T10:14:57.207Z,0.70
2022-11-09T10:17:35.180Z,0.88
2022-11-09T10:20:09.179Z,0.80
2022-11-09T10:22:56.808Z,0.68
2022-11-09T10:25:57.694Z,0.88
2022-11-09T10:28:15.609Z,0.63
2022-11-09T10:30:42.997Z,0.90
2022-11-09T10:33:10.266Z,0.63
2022-11-09T10:36:08.044Z,1.10
2022-11-09T10:38:42.834Z,0.63
2022-11-09T10:41:29.154Z,0.95
2022-11-09T10:43:56.582Z,0.77
2022-11-09T10:46:24.787Z,0.68
2022-11-09T10:48:53.418Z,0.80
2022-11-09T10:51:46.622Z,3.92
2022-11-09T10:54:20.833Z,1.05
2022-11-09T10:57:06.773Z,0.67
2022-11-09T10:59:40.962Z,1.63
2022-11-09T11:02:26.804Z,1.40
2022-11-09T11:04:54.674Z,1.10
2022-11-09T11:07:23.072Z,2.13
2022-11-09T11:09:53.442Z,2.10
2022-11-09T11:12:20.858Z,2.40
2022-11-09T11:14:48.419Z,1.00
2022-11-09T11:17:30.051Z,1.52
2022-11-09T11:20:17.346Z,1.88
2022-11-09T11:22:44.772Z,1.50
2022-11-09T11:25:20.467Z,1.20
2022-11-09T11:27:47.827Z,1.33
2022-11-09T11:30:15.100Z,1.55
2022-11-09T11:32:48.821Z,1.38
2022-11-09T11:35:37.993Z,1.08
2022-11-09T11:38:20.860Z,0.80
2022-11-09T11:41:06.924Z,0.80
2022-11-09T11:43:52.861Z,0.98
2022-11-09T11:46:41.189Z,1.00
2022-11-09T11:49:28.271Z,0.88
2022-11-09T11:51:55.596Z,0.90
2022-11-09T11:54:22.924Z,1.00
2022-11-09T11:57:08.885Z,1.23
2022-11-09T11:59:49.192Z,1.13
2022-11-09T12:02:51.951Z,1.13
2022-11-09T12:05:38.326Z,0.70
2022-11-09T12:08:29.060Z,0.80
2022-11-09T12:10:59.481Z,0.90
2022-11-09T12:13:42.488Z,0.90
2022-11-09T12:16:21.429Z,0.80
2022-11-09T12:18:59.501Z,0.77
2022-11-09T12:21:33.004Z,1.65
2022-11-09T12:24:08.266Z,0.65
2022-11-09T12:26:36.133Z,0.95
2022-11-09T12:29:03.468Z,0.60
2022-11-09T12:31:51.045Z,0.63
2022-11-09T12:34:18.342Z,0.82
2022-11-09T12:36:48.195Z,0.88
2022-11-09T12:39:26.280Z,0.45
2022-11-09T12:41:55.681Z,0.47
2022-11-09T12:44:26.117Z,0.50
2022-11-09T12:46:57.371Z,0.80
2022-11-09T12:49:36.619Z,0.60
2022-11-09T12:52:06.232Z,0.82
2022-11-09T12:54:34.590Z,0.50
2022-11-09T12:57:11.070Z,1.23
2022-11-09T12:59:50.221Z,1.00
2022-11-09T13:02:23.973Z,0.60
2022-11-09T13:04:55.632Z,0.88
2022-11-09T13:07:41.420Z,0.60
2022-11-09T13:10:22.889Z,0.68
2022-11-09T13:12:50.280Z,1.30
2022-11-09T13:15:25.117Z,0.60
2022-11-09T13:18:15.535Z,0.73
2022-11-09T13:20:58.963Z,0.88
2022-11-09T13:23:54.824Z,0.90
2022-11-09T13:26:41.871Z,0.80
2022-11-09T13:29:21.429Z,0.65
2022-11-09T13:32:07.897Z,0.90
2022-11-09T13:34:54.707Z,0.90
2022-11-09T13:37:34.044Z,1.00
2022-11-09T13:40:01.400Z,1.15
2022-11-09T13:42:29.945Z,1.27
2022-11-09T13:45:17.537Z,1.15
2022-11-09T13:47:51.231Z,1.52
2022-11-09T13:50:20.000Z,1.42
2022-11-09T13:52:58.831Z,0.90
2022-11-09T13:55:39.816Z,2.00
2022-11-09T13:58:17.972Z,0.90
2022-11-09T14:00:48.721Z,1.00
2022-11-09T14:03:18.491Z,0.88
2022-11-09T14:05:46.252Z,1.00
2022-11-09T14:08:20.621Z,1.00
2022-11-09T14:11:07.017Z,0.90
2022-11-09T14:14:02.024Z,0.75
2022-11-09T14:16:50.750Z,0.60
2022-11-09T14:19:36.823Z,0.80
2022-11-09T14:22:04.221Z,0.68
2022-11-09T14:24:35.221Z,0.70
2022-11-09T14:27:03.703Z,1.10
2022-11-09T14:29:33.269Z,1.10
2022-11-09T14:32:16.906Z,1.55
2022-11-09T14:34:44.237Z,1.02
2022-11-09T14:37:12.946Z,1.98
2022-11-09T14:39:40.462Z,0.80
2022-11-09T14:42:08.175Z,1.48
2022-11-09T14:44:40.669Z,1.92
2022-11-09T14:47:15.937Z,1.00
2022-11-09T14:49:43.470Z,1.00
2022-11-09T14:52:13.538Z,1.25
2022-11-09T14:54:44.837Z,1.17
2022-11-09T14:57:15.563Z,2.08
2022-11-09T14:59:44.286Z,1.17
2022-11-09T15:02:13.719Z,1.10
2022-11-09T15:05:00.258Z,1.73
2022-11-09T15:07:29.338Z,0.90
2022-11-09T15:10:00.564Z,1.23
2022-11-09T15:12:30.049Z,1.40
2022-11-09T15:15:01.659Z,1.30
2022-11-09T15:17:31.033Z,1.42
2022-11-09T15:19:58.423Z,1.23
2022-11-09T15:22:38.126Z,1.67
2022-11-09T15:25:23.993Z,1.45
2022-11-09T15:28:00.560Z,1.25
2022-11-09T15:30:28.839Z,1.92
2022-11-09T15:32:56.375Z,1.23
2022-11-09T15:35:23.763Z,1.02
2022-11-09T15:37:53.933Z,0.73
2022-11-09T15:40:22.818Z,1.10
2022-11-09T15:42:50.267Z,1.10
2022-11-09T15:45:20.396Z,1.23
2022-11-09T15:47:55.775Z,1.85
2022-11-09T15:50:25.458Z,2.22
2022-11-09T15:52:53.098Z,1.50
2022-11-09T15:55:24.858Z,1.23
2022-11-09T15:57:55.696Z,1.25
2022-11-09T16:00:24.018Z,1.60
2022-11-09T16:02:51.549Z,1.83
2022-11-09T16:05:19.917Z,1.40
2022-11-09T16:07:51.636Z,2.00
2022-11-09T16:10:23.587Z,2.47
2022-11-09T16:12:56.156Z,1.40
2022-11-09T16:15:24.873Z,2.13
2022-11-09T16:17:52.847Z,3.35
2022-11-09T16:20:21.088Z,1.88
2022-11-09T16:22:48.765Z,1.95
2022-11-09T16:25:16.592Z,2.90
2022-11-09T16:27:51.777Z,2.13
2022-11-09T16:30:20.510Z,2.40
2022-11-09T16:32:47.962Z,2.40
2022-11-09T16:35:30.714Z,1.65
2022-11-09T16:37:59.924Z,1.80
2022-11-09T16:40:29.177Z,1.85
2022-11-09T16:42:56.607Z,1.73
2022-11-09T16:45:25.959Z,1.73
2022-11-09T16:47:57.110Z,1.90
2022-11-09T16:50:24.853Z,1.63
2022-11-09T16:52:52.230Z,2.10
2022-11-09T16:55:19.771Z,2.38
2022-11-09T16:57:47.122Z,1.90
2022-11-09T17:00:16.205Z,2.28
2022-11-09T17:02:43.682Z,1.67
2022-11-09T17:05:11.092Z,1.30
2022-11-09T17:07:42.812Z,1.90
2022-11-09T17:10:11.292Z,1.65
2022-11-09T17:12:39.059Z,4.20
2022-11-09T17:15:06.965Z,2.72
2022-11-09T17:17:34.279Z,2.63
2022-11-09T17:20:05.193Z,3.00
2022-11-09T17:22:32.824Z,2.60
2022-11-09T17:25:00.452Z,1.80
2022-11-09T17:27:27.834Z,1.30
2022-11-09T17:29:55.188Z,1.92
2022-11-09T17:32:26.139Z,2.33
2022-11-09T17:34:53.648Z,1.20
2022-11-09T17:37:21.220Z,1.50
2022-11-09T17:39:48.776Z,1.60
2022-11-09T17:42:16.194Z,1.52
2022-11-09T17:44:43.693Z,1.98
2022-11-09T17:47:11.046Z,5.10
2022-11-09T17:49:38.479Z,3.67
2022-11-09T17:52:05.932Z,3.70
2022-11-09T17:54:36.954Z,4.18
2022-11-09T17:57:05.015Z,4.40
2022-11-09T17:59:32.357Z,3.92
2022-11-09T18:01:59.944Z,3.45
2022-11-09T18:04:27.489Z,3.03
2022-11-09T18:06:54.847Z,1.80
2022-11-09T18:12:11.437Z,1.88
2022-11-09T18:14:38.727Z,1.70
2022-11-09T18:17:06.099Z,1.63
2022-11-09T18:19:33.498Z,1.90
2022-11-09T18:22:03.008Z,1.80
2022-11-09T18:24:33.077Z,1.50
2022-11-09T18:27:00.926Z,1.20
2022-11-09T18:29:35.505Z,1.40
2022-11-09T18:32:02.907Z,0.90
2022-11-09T18:34:30.299Z,1.27
2022-11-09T18:36:57.702Z,1.02
2022-11-09T18:39:26.900Z,1.17
2022-11-09T18:41:54.757Z,1.30
2022-11-09T18:44:22.292Z,3.33
2022-11-09T18:46:49.691Z,3.85
2022-11-09T18:49:18.164Z,3.00
2022-11-09T18:51:45.602Z,1.85
2022-11-09T18:54:13.049Z,1.92
2022-11-09T18:56:40.385Z,1.85
2022-11-09T18:59:07.782Z,1.70
2022-11-09T19:01:35.130Z,1.48
2022-11-09T19:04:05.600Z,1.50
2022-11-09T19:06:35.524Z,2.05
2022-11-09T19:09:21.569Z,2.45
2022-11-09T19:11:48.945Z,2.10
2022-11-09T19:14:16.407Z,1.88
2022-11-09T19:16:43.790Z,1.52
2022-11-09T19:19:14.880Z,1.98
2022-11-09T19:21:48.268Z,1.63
2022-11-09T19:24:17.256Z,1.95
2022-11-09T19:26:44.864Z,1.88
2022-11-09T19:29:13.220Z,2.15
2022-11-09T19:31:43.567Z,2.40
2022-11-09T19:34:12.234Z,3.28
2022-11-09T19:36:39.641Z,2.72
2022-11-09T19:39:06.944Z,2.40
2022-11-09T19:41:34.345Z,2.17
2022-11-09T19:44:01.961Z,2.10
2022-11-09T19:46:33.932Z,2.08
2022-11-09T19:49:01.732Z,2.13
2022-11-09T19:51:31.150Z,2.60
2022-11-09T19:54:00.126Z,2.15
2022-11-09T19:56:29.638Z,2.20
2022-11-09T19:59:01.512Z,2.28
2022-11-09T20:01:30.927Z,2.20
2022-11-09T20:03:59.662Z,2.08
2022-11-09T20:06:27.624Z,2.40
2022-11-09T20:08:55.209Z,1.90
2022-11-09T20:11:43.100Z,2.30
2022-11-09T20:14:10.787Z,2.28
2022-11-09T20:16:38.649Z,2.50
2022-11-09T20:19:07.119Z,2.70
2022-11-09T20:21:34.518Z,2.10
2022-11-09T20:24:01.900Z,2.03
2022-11-09T20:26:29.272Z,1.88
2022-11-09T20:28:57.131Z,1.67
2022-11-09T20:31:24.684Z,1.80
2022-11-09T20:33:52.683Z,1.60
2022-11-09T20:36:20.251Z,2.28
2022-11-09T20:38:49.185Z,1.70
2022-11-09T20:41:18.009Z,1.80
2022-11-09T20:43:48.046Z,1.13
2022-11-09T20:46:19.651Z,1.90
2022-11-09T20:48:54.012Z,1.38
2022-11-09T20:51:23.070Z,1.58
2022-11-09T20:53:50.879Z,1.48
2022-11-09T20:56:19.028Z,1.52
2022-11-09T20:58:46.643Z,1.48
2022-11-09T21:01:15.738Z,1.27
2022-11-09T21:03:43.544Z,1.42
2022-11-09T21:06:11.314Z,1.50
2022-11-09T21:08:39.049Z,1.80
2022-11-09T21:11:07.569Z,2.08
2022-11-09T21:13:35.091Z,3.17
2022-11-09T21:16:09.924Z,2.10
2022-11-09T21:18:37.286Z,1.45
2022-11-09T21:21:05.994Z,2.05
2022-11-09T21:23:52.003Z,1.42
2022-11-09T21:26:37.936Z,1.50
2022-11-09T21:29:24.756Z,1.10
2022-11-09T21:31:52.143Z,1.58
2022-11-09T21:34:19.459Z,1.60
2022-11-09T21:36:46.805Z,1.50
2022-11-09T21:39:14.559Z,1.55
2022-11-09T21:41:42.222Z,1.48
2022-11-09T21:44:10.751Z,1.60
2022-11-09T21:46:39.749Z,1.40
2022-11-09T21:49:07.567Z,1.23
2022-11-09T21:51:36.055Z,1.52
2022-11-09T21:54:03.371Z,2.20
2022-11-09T21:56:31.061Z,1.23
2022-11-09T21:58:58.340Z,1.30
2022-11-09T22:01:26.270Z,1.33
2022-11-09T22:03:54.003Z,1.42
2022-11-09T22:06:21.884Z,2.13
2022-11-09T22:08:49.505Z,1.58
2022-11-09T22:11:18.331Z,1.95
2022-11-09T22:14:04.612Z,1.70
2022-11-09T22:16:32.935Z,1.38
2022-11-09T22:19:20.900Z,1.63
2022-11-09T22:21:48.503Z,1.95
2022-11-09T22:24:15.913Z,1.55
2022-11-09T22:26:43.462Z,1.92
2022-11-09T22:29:14.629Z,1.52
2022-11-09T22:31:42.079Z,2.17
2022-11-09T22:34:09.410Z,1.95
2022-11-09T22:36:36.786Z,1.88
2022-11-09T22:39:04.191Z,1.40
2022-11-09T22:41:31.501Z,1.63
2022-11-09T22:44:00.284Z,1.65
2022-11-09T22:46:27.844Z,1.83
2022-11-09T22:48:55.312Z,1.80
2022-11-09T22:51:22.689Z,1.70
2022-11-09T22:53:50.734Z,1.73
2022-11-09T22:56:18.642Z,1.70
2022-11-09T22:58:46.280Z,1.63
2022-11-09T23:01:14.924Z,1.48
2022-11-09T23:03:43.075Z,1.45
2022-11-09T23:06:12.981Z,1.40
2022-11-09T23:08:40.345Z,1.63
2022-11-09T23:11:08.753Z,1.50
2022-11-09T23:13:36.289Z,1.27
2022-11-09T23:16:05.326Z,1.63
2022-11-09T23:18:51.785Z,1.45
2022-11-09T23:21:19.595Z,1.85
2022-11-09T23:23:47.599Z,1.52
2022-11-09T23:26:14.958Z,1.85
2022-11-09T23:28:42.616Z,1.48
2022-11-09T23:31:14.275Z,1.55
2022-11-09T23:33:41.807Z,1.55
2022-11-09T23:36:10.780Z,1.83
2022-11-09T23:38:39.134Z,1.48
2022-11-09T23:41:07.587Z,1.50
2022-11-09T23:43:35.847Z,2.00
2022-11-09T23:46:10.747Z,2.38
2022-11-09T23:48:38.572Z,1.60
2022-11-09T23:51:06.552Z,1.63
2022-11-09T23:53:34.453Z,1.50
2022-11-09T23:56:02.943Z,1.42
2022-11-09T23:58:30.611Z,1.40
